Airfield :
LOGIN :

Register | Disclaimer

   EN    FR    IT 

 










Legend :    VFR   Marginal VFR   IFR   Intensive IFR   Very Intensive IFR
Visi :
Ceiling :
>= 8 km
>= 3000ft
5 to 8 km
1000 to 3000 ft
1500m to 5 km
500 to 1000 ft
800 to 1500m
200 to 500 ft
< 800m
< 200 ft
Symbols :   Thunderstorms  Fog  Heavy snow  Heavy precipitations  Wind > 20 kt
SIGMETs :     Misc.  Thunderstorms  Icing  Turbulence  Mountain Waves  Volcanic Ashes






- Airport Elevation : 978 ft
- IATA code : LNZ


LOWL - Linz

CURRENT METAR :
  • 121650Z AUTO 24011KT 9999 FEW016 BKN019 BKN032 12/10 Q1008 NOSIG

EXPIRED METARs :
  • 121620Z AUTO 24012KT 9999 -DZ FEW014 SCT017 BKN024 12/10 Q1008 NOSIG
  • 121550Z AUTO 24010KT 9999 FEW017 BKN020 12/10 Q1008 NOSIG
  • 121520Z AUTO 24009KT 9999 FEW016 SCT020 BKN024 12/10 Q1009 NOSIG
  • 121450Z 24009KT 9999 -RA FEW012 BKN018 12/10 Q1009 NOSIG
  • 121420Z 24010KT 7000 -RA FEW008 SCT017 BKN022 12/11 Q1009 NOSIG

TAF TAF LOWL
Valid from the 12 at 12:00 until the 13 at 12:00 UTC


121115Z 1212/1312 25012KT 9999 -RA SCT010 BKN020 TX12/1214Z TN10/1304Z
TEMPO 1212/1310 4000 RA SCT008 BKN012



MET'MAP, your aeronautical weather chart ! - Copyright ORBIFLY December 2007 - Disclaimer

ORBIFLY MET'MAP TEAM :

Programming & Development : Alexandra Zaïnal
Concept & original design : Baudouin d'Aumeries
Assistance for programming : Marc-Olivier Méhu
Technical & hardware support : Manuel Goepfert

Contact : metmap@orbifly.com




SOURCES & CREDITS :

   NOAA